CCM157 LFML-LFKJ
Flight info
| Callsign | CCM157 |
|---|---|
| Flight time | 0h 39m |
| Altitude | 23000 |
| Route | TINOT Z154 RUBAS |
| Aircraft | A320/M-SDE3FGHIRWY/LB1 |
Departure
| Time | 2026-04-27 10:22 |
|---|---|
| Airport | Marseille Provence Airport (LFML) |
Arrival
| Time | 2026-04-27 11:01 |
|---|---|
| Airport | Ajaccio Napoléon Bonaparte airport (LFKJ) |
| Time | Latitude | Longitude | Altitude | Speed | Heading |
|---|---|---|---|---|---|
| 2026-04-27 09:57 | 43.44060 | 5.22105 | 41 ft | 0 kts | 39° |
| 2026-04-27 10:12 | 43.44052 | 5.22096 | 41 ft | 4 kts | 38° |
| 2026-04-27 10:12 | 43.44031 | 5.22073 | 41 ft | 4 kts | 37° |
| 2026-04-27 10:13 | 43.44010 | 5.22050 | 41 ft | 4 kts | 49° |
| 2026-04-27 10:13 | 43.43999 | 5.22022 | 41 ft | 2 kts | 92° |
| 2026-04-27 10:13 | 43.43998 | 5.21993 | 41 ft | 4 kts | 68° |
| 2026-04-27 10:13 | 43.43990 | 5.21972 | 41 ft | 4 kts | 43° |
| 2026-04-27 10:14 | 43.43968 | 5.21947 | 41 ft | 0 kts | 44° |
| 2026-04-27 10:16 | 43.43968 | 5.21948 | 41 ft | 1 kts | 44° |
| 2026-04-27 10:17 | 43.43994 | 5.21984 | 39 ft | 7 kts | 54° |
| 2026-04-27 10:17 | 43.43980 | 5.22054 | 40 ft | 9 kts | 131° |
| 2026-04-27 10:17 | 43.43931 | 5.22120 | 42 ft | 12 kts | 134° |
| 2026-04-27 10:17 | 43.43864 | 5.22137 | 43 ft | 12 kts | 224° |
| 2026-04-27 10:18 | 43.43799 | 5.22052 | 44 ft | 14 kts | 221° |
| 2026-04-27 10:18 | 43.43707 | 5.22054 | 47 ft | 15 kts | 148° |
| 2026-04-27 10:18 | 43.43611 | 5.22135 | 46 ft | 17 kts | 148° |
| 2026-04-27 10:18 | 43.43512 | 5.22212 | 51 ft | 16 kts | 151° |
| 2026-04-27 10:19 | 43.43418 | 5.22278 | 51 ft | 14 kts | 161° |
| 2026-04-27 10:19 | 43.43324 | 5.22333 | 50 ft | 16 kts | 137° |
| 2026-04-27 10:19 | 43.43268 | 5.22415 | 57 ft | 6 kts | 134° |
| 2026-04-27 10:19 | 43.43240 | 5.22455 | 52 ft | 5 kts | 134° |
| 2026-04-27 10:20 | 43.43200 | 5.22493 | 54 ft | 11 kts | 161° |
| 2026-04-27 10:20 | 43.43100 | 5.22476 | 61 ft | 15 kts | 206° |
| 2026-04-27 10:20 | 43.43012 | 5.22378 | 57 ft | 17 kts | 222° |
| 2026-04-27 10:20 | 43.42971 | 5.22309 | 54 ft | 12 kts | 243° |
| 2026-04-27 10:21 | 43.42946 | 5.22178 | 55 ft | 16 kts | 260° |
| 2026-04-27 10:21 | 43.42928 | 5.22033 | 55 ft | 12 kts | 261° |
| 2026-04-27 10:21 | 43.42969 | 5.21908 | 51 ft | 22 kts | 315° |
| 2026-04-27 10:21 | 43.43254 | 5.21514 | 40 ft | 97 kts | 315° |
| 2026-04-27 10:22 | 43.43882 | 5.20646 | 36 ft | 154 kts | 314° |
| 2026-04-27 10:22 | 43.44637 | 5.19598 | 691 ft | 151 kts | 314° |
| 2026-04-27 10:22 | 43.45386 | 5.18562 | 1369 ft | 155 kts | 314° |
| 2026-04-27 10:22 | 43.46199 | 5.17443 | 1680 ft | 175 kts | 314° |
| 2026-04-27 10:23 | 43.47118 | 5.16174 | 1924 ft | 201 kts | 311° |
| 2026-04-27 10:23 | 43.47687 | 5.14381 | 2320 ft | 215 kts | 270° |
| 2026-04-27 10:23 | 43.47235 | 5.12420 | 2858 ft | 223 kts | 229° |
| 2026-04-27 10:23 | 43.45943 | 5.11315 | 3616 ft | 223 kts | 193° |
| 2026-04-27 10:24 | 43.44431 | 5.10808 | 4378 ft | 225 kts | 194° |
| 2026-04-27 10:24 | 43.42912 | 5.10268 | 5133 ft | 227 kts | 195° |
| 2026-04-27 10:24 | 43.41380 | 5.09711 | 5848 ft | 229 kts | 195° |
| 2026-04-27 10:24 | 43.39826 | 5.09141 | 6539 ft | 232 kts | 195° |
| 2026-04-27 10:25 | 43.38254 | 5.08562 | 7227 ft | 237 kts | 194° |
| 2026-04-27 10:25 | 43.36612 | 5.07991 | 7584 ft | 256 kts | 194° |
| 2026-04-27 10:25 | 43.34803 | 5.07391 | 7981 ft | 277 kts | 193° |
| 2026-04-27 10:25 | 43.32890 | 5.06769 | 8675 ft | 285 kts | 194° |
| 2026-04-27 10:26 | 43.30944 | 5.06136 | 9442 ft | 290 kts | 193° |
| 2026-04-27 10:26 | 43.28966 | 5.05489 | 10207 ft | 294 kts | 193° |
| 2026-04-27 10:26 | 43.26915 | 5.04817 | 10633 ft | 314 kts | 193° |
| 2026-04-27 10:26 | 43.24708 | 5.04098 | 10863 ft | 337 kts | 193° |
| 2026-04-27 10:27 | 43.22338 | 5.03402 | 11134 ft | 356 kts | 186° |
| 2026-04-27 10:27 | 43.19839 | 5.03478 | 11708 ft | 364 kts | 169° |
| 2026-04-27 10:27 | 43.17415 | 5.04509 | 12394 ft | 367 kts | 157° |
| 2026-04-27 10:27 | 43.15049 | 5.05852 | 13109 ft | 370 kts | 157° |
| 2026-04-27 10:28 | 43.12663 | 5.07218 | 13790 ft | 373 kts | 157° |
| 2026-04-27 10:28 | 43.10258 | 5.08599 | 14457 ft | 376 kts | 157° |
| 2026-04-27 10:28 | 43.07831 | 5.09987 | 15096 ft | 380 kts | 157° |
| 2026-04-27 10:28 | 43.05382 | 5.11384 | 15718 ft | 383 kts | 157° |
| 2026-04-27 10:29 | 43.02911 | 5.12791 | 16332 ft | 386 kts | 157° |
| 2026-04-27 10:29 | 43.00422 | 5.14202 | 16929 ft | 389 kts | 157° |
| 2026-04-27 10:29 | 42.97910 | 5.15623 | 17521 ft | 392 kts | 158° |
| 2026-04-27 10:29 | 42.95382 | 5.17053 | 18094 ft | 395 kts | 157° |
| 2026-04-27 10:30 | 42.92826 | 5.18498 | 18667 ft | 399 kts | 157° |
| 2026-04-27 10:30 | 42.90289 | 5.19930 | 19213 ft | 402 kts | 157° |
| 2026-04-27 10:30 | 42.87692 | 5.21398 | 19744 ft | 405 kts | 157° |
| 2026-04-27 10:30 | 42.85076 | 5.22877 | 20270 ft | 409 kts | 157° |
| 2026-04-27 10:31 | 42.82444 | 5.24369 | 20769 ft | 412 kts | 157° |
| 2026-04-27 10:31 | 42.79787 | 5.25871 | 21249 ft | 415 kts | 157° |
| 2026-04-27 10:31 | 42.77109 | 5.27384 | 21721 ft | 418 kts | 157° |
| 2026-04-27 10:31 | 42.74456 | 5.29071 | 22169 ft | 421 kts | 149° |
| 2026-04-27 10:32 | 42.72062 | 5.31373 | 22593 ft | 423 kts | 138° |
| 2026-04-27 10:32 | 42.70024 | 5.34259 | 23002 ft | 425 kts | 127° |
| 2026-04-27 10:32 | 42.68407 | 5.37626 | 23144 ft | 427 kts | 116° |
| 2026-04-27 10:32 | 42.67276 | 5.41403 | 23185 ft | 438 kts | 108° |
| 2026-04-27 10:33 | 42.66308 | 5.45355 | 23166 ft | 443 kts | 108° |
| 2026-04-27 10:33 | 42.65338 | 5.49312 | 23181 ft | 435 kts | 108° |
| 2026-04-27 10:33 | 42.64399 | 5.53184 | 23185 ft | 434 kts | 108° |
| 2026-04-27 10:33 | 42.63444 | 5.57138 | 23185 ft | 446 kts | 108° |
| 2026-04-27 10:34 | 42.62480 | 5.61136 | 23187 ft | 455 kts | 108° |
| 2026-04-27 10:34 | 42.61468 | 5.65229 | 23185 ft | 458 kts | 109° |
| 2026-04-27 10:34 | 42.60431 | 5.69319 | 23181 ft | 458 kts | 109° |
| 2026-04-27 10:34 | 42.59382 | 5.73394 | 23184 ft | 458 kts | 109° |
| 2026-04-27 10:35 | 42.58324 | 5.77478 | 23185 ft | 458 kts | 109° |
| 2026-04-27 10:35 | 42.57270 | 5.81550 | 23187 ft | 458 kts | 109° |
| 2026-04-27 10:35 | 42.56395 | 5.85711 | 23175 ft | 458 kts | 100° |
| 2026-04-27 10:35 | 42.55909 | 5.89989 | 23185 ft | 459 kts | 99° |
| 2026-04-27 10:36 | 42.55438 | 5.94269 | 23181 ft | 459 kts | 99° |
| 2026-04-27 10:36 | 42.54971 | 5.98548 | 23179 ft | 459 kts | 99° |
| 2026-04-27 10:36 | 42.54507 | 6.02825 | 23175 ft | 459 kts | 99° |
| 2026-04-27 10:36 | 42.54041 | 6.07105 | 23168 ft | 459 kts | 99° |
| 2026-04-27 10:37 | 42.53571 | 6.11384 | 23169 ft | 459 kts | 99° |
| 2026-04-27 10:37 | 42.53094 | 6.15662 | 23165 ft | 459 kts | 99° |
| 2026-04-27 10:37 | 42.52614 | 6.19938 | 23168 ft | 459 kts | 99° |
| 2026-04-27 10:37 | 42.52131 | 6.24215 | 23166 ft | 459 kts | 99° |
| 2026-04-27 10:38 | 42.51649 | 6.28492 | 23168 ft | 459 kts | 99° |
| 2026-04-27 10:38 | 42.51169 | 6.32778 | 23166 ft | 459 kts | 99° |
| 2026-04-27 10:38 | 42.50694 | 6.37000 | 23168 ft | 460 kts | 99° |
| 2026-04-27 10:38 | 42.50211 | 6.41290 | 23169 ft | 459 kts | 99° |
| 2026-04-27 10:39 | 42.49728 | 6.45567 | 23165 ft | 460 kts | 99° |
| 2026-04-27 10:39 | 42.49244 | 6.49846 | 23164 ft | 460 kts | 99° |
| 2026-04-27 10:39 | 42.48756 | 6.54131 | 23166 ft | 460 kts | 99° |
| 2026-04-27 10:39 | 42.48265 | 6.58410 | 23168 ft | 460 kts | 99° |
| 2026-04-27 10:40 | 42.47772 | 6.62685 | 23167 ft | 460 kts | 99° |
| 2026-04-27 10:40 | 42.47276 | 6.66967 | 23163 ft | 460 kts | 99° |
| 2026-04-27 10:40 | 42.46782 | 6.71239 | 23166 ft | 460 kts | 99° |
| 2026-04-27 10:40 | 42.46284 | 6.75527 | 23160 ft | 460 kts | 99° |
| 2026-04-27 10:41 | 42.45785 | 6.79804 | 23165 ft | 460 kts | 99° |
| 2026-04-27 10:41 | 42.45282 | 6.84091 | 23166 ft | 460 kts | 99° |
| 2026-04-27 10:41 | 42.44776 | 6.88366 | 23166 ft | 460 kts | 99° |
| 2026-04-27 10:41 | 42.44267 | 6.92656 | 23159 ft | 461 kts | 99° |
| 2026-04-27 10:42 | 42.43766 | 6.96887 | 23166 ft | 461 kts | 99° |
| 2026-04-27 10:42 | 42.43257 | 7.01175 | 23166 ft | 461 kts | 99° |
| 2026-04-27 10:42 | 42.42747 | 7.05455 | 23162 ft | 461 kts | 99° |
| 2026-04-27 10:42 | 42.42236 | 7.09740 | 23161 ft | 461 kts | 99° |
| 2026-04-27 10:43 | 42.41724 | 7.14016 | 23163 ft | 456 kts | 99° |
| 2026-04-27 10:43 | 42.41226 | 7.18176 | 22789 ft | 443 kts | 99° |
| 2026-04-27 10:43 | 42.40735 | 7.22256 | 22190 ft | 436 kts | 99° |
| 2026-04-27 10:43 | 42.40244 | 7.26294 | 21576 ft | 432 kts | 99° |
| 2026-04-27 10:44 | 42.39757 | 7.30284 | 20947 ft | 428 kts | 99° |
| 2026-04-27 10:44 | 42.39272 | 7.34242 | 20324 ft | 424 kts | 99° |
| 2026-04-27 10:44 | 42.38792 | 7.38163 | 19709 ft | 421 kts | 99° |
| 2026-04-27 10:44 | 42.38316 | 7.42054 | 19110 ft | 417 kts | 99° |
| 2026-04-27 10:45 | 42.37842 | 7.45919 | 18532 ft | 414 kts | 99° |
| 2026-04-27 10:45 | 42.37370 | 7.49756 | 17964 ft | 411 kts | 99° |
| 2026-04-27 10:45 | 42.36908 | 7.53505 | 17418 ft | 408 kts | 99° |
| 2026-04-27 10:45 | 42.36443 | 7.57276 | 16860 ft | 405 kts | 99° |
| 2026-04-27 10:46 | 42.35978 | 7.61015 | 16330 ft | 401 kts | 100° |
| 2026-04-27 10:46 | 42.35515 | 7.64719 | 15789 ft | 398 kts | 100° |
| 2026-04-27 10:46 | 42.35056 | 7.68387 | 15249 ft | 394 kts | 100° |
| 2026-04-27 10:46 | 42.34603 | 7.72030 | 14725 ft | 391 kts | 99° |
| 2026-04-27 10:47 | 42.34152 | 7.75640 | 14199 ft | 387 kts | 100° |
| 2026-04-27 10:47 | 42.33701 | 7.79214 | 13646 ft | 384 kts | 100° |
| 2026-04-27 10:47 | 42.33252 | 7.82752 | 13087 ft | 381 kts | 100° |
| 2026-04-27 10:47 | 42.32805 | 7.86261 | 12516 ft | 377 kts | 100° |
| 2026-04-27 10:48 | 42.32362 | 7.89739 | 11949 ft | 374 kts | 100° |
| 2026-04-27 10:48 | 42.31923 | 7.93182 | 11368 ft | 370 kts | 100° |
| 2026-04-27 10:48 | 42.31483 | 7.96594 | 10775 ft | 367 kts | 102° |
| 2026-04-27 10:48 | 42.30763 | 7.99870 | 10285 ft | 361 kts | 112° |
| 2026-04-27 10:49 | 42.29841 | 8.02903 | 10138 ft | 345 kts | 112° |
| 2026-04-27 10:49 | 42.28962 | 8.05829 | 10164 ft | 326 kts | 112° |
| 2026-04-27 10:49 | 42.28138 | 8.08596 | 10164 ft | 309 kts | 112° |
| 2026-04-27 10:49 | 42.27359 | 8.11221 | 10183 ft | 296 kts | 112° |
| 2026-04-27 10:50 | 42.26600 | 8.13768 | 10019 ft | 290 kts | 112° |
| 2026-04-27 10:50 | 42.25847 | 8.16285 | 9647 ft | 288 kts | 112° |
| 2026-04-27 10:50 | 42.25094 | 8.18789 | 9270 ft | 287 kts | 112° |
| 2026-04-27 10:50 | 42.24344 | 8.21275 | 8888 ft | 285 kts | 112° |
| 2026-04-27 10:51 | 42.23595 | 8.23754 | 8504 ft | 284 kts | 112° |
| 2026-04-27 10:51 | 42.22853 | 8.26209 | 8129 ft | 282 kts | 112° |
| 2026-04-27 10:51 | 42.22124 | 8.28624 | 7871 ft | 281 kts | 112° |
| 2026-04-27 10:51 | 42.21386 | 8.31067 | 7629 ft | 281 kts | 112° |
| 2026-04-27 10:52 | 42.20648 | 8.33509 | 7379 ft | 280 kts | 112° |
| 2026-04-27 10:52 | 42.19910 | 8.35946 | 7097 ft | 279 kts | 112° |
| 2026-04-27 10:52 | 42.19176 | 8.38366 | 6822 ft | 278 kts | 112° |
| 2026-04-27 10:52 | 42.18446 | 8.40767 | 6576 ft | 276 kts | 112° |
| 2026-04-27 10:53 | 42.17734 | 8.43102 | 6441 ft | 262 kts | 112° |
| 2026-04-27 10:53 | 42.16403 | 8.47466 | 6082 ft | 243 kts | 114° |
| 2026-04-27 10:53 | 42.15512 | 8.49376 | 5987 ft | 242 kts | 131° |
| 2026-04-27 10:54 | 42.14275 | 8.50906 | 5706 ft | 241 kts | 140° |
| 2026-04-27 10:54 | 42.12988 | 8.52346 | 5419 ft | 240 kts | 140° |
| 2026-04-27 10:54 | 42.11724 | 8.53761 | 5162 ft | 239 kts | 140° |
| 2026-04-27 10:54 | 42.10448 | 8.55192 | 4914 ft | 238 kts | 140° |
| 2026-04-27 10:55 | 42.09175 | 8.56623 | 4657 ft | 238 kts | 140° |
| 2026-04-27 10:55 | 42.07908 | 8.58048 | 4403 ft | 237 kts | 140° |
| 2026-04-27 10:55 | 42.06640 | 8.59468 | 4150 ft | 236 kts | 141° |
| 2026-04-27 10:55 | 42.05384 | 8.60874 | 3894 ft | 232 kts | 141° |
| 2026-04-27 10:56 | 42.04151 | 8.62251 | 3653 ft | 228 kts | 141° |
| 2026-04-27 10:56 | 42.02944 | 8.63604 | 3413 ft | 224 kts | 141° |
| 2026-04-27 10:56 | 42.01778 | 8.64968 | 3170 ft | 220 kts | 133° |
| 2026-04-27 10:56 | 42.00943 | 8.66629 | 3054 ft | 210 kts | 114° |
| 2026-04-27 10:57 | 42.00537 | 8.68443 | 3013 ft | 199 kts | 99° |
| 2026-04-27 10:57 | 42.00307 | 8.70251 | 3013 ft | 191 kts | 100° |
| 2026-04-27 10:57 | 42.00088 | 8.71935 | 3047 ft | 178 kts | 100° |
| 2026-04-27 10:57 | 41.99878 | 8.73550 | 3007 ft | 174 kts | 100° |
| 2026-04-27 10:58 | 41.99665 | 8.75177 | 2676 ft | 177 kts | 101° |
| 2026-04-27 10:58 | 41.99452 | 8.76788 | 2371 ft | 175 kts | 102° |
| 2026-04-27 10:58 | 41.99239 | 8.78392 | 2066 ft | 172 kts | 102° |
| 2026-04-27 10:58 | 41.99037 | 8.79920 | 1822 ft | 161 kts | 102° |
| 2026-04-27 10:59 | 41.98735 | 8.81316 | 1540 ft | 151 kts | 124° |
| 2026-04-27 10:59 | 41.98045 | 8.82305 | 1327 ft | 142 kts | 152° |
| 2026-04-27 10:59 | 41.97141 | 8.82751 | 1099 ft | 137 kts | 177° |
| 2026-04-27 11:00 | 41.95373 | 8.82106 | 656 ft | 133 kts | 207° |
| 2026-04-27 11:00 | 41.94538 | 8.81587 | 459 ft | 134 kts | 206° |
| 2026-04-27 11:00 | 41.93695 | 8.81060 | 245 ft | 134 kts | 206° |
| 2026-04-27 11:00 | 41.92850 | 8.80529 | 39 ft | 132 kts | 206° |
| 2026-04-27 11:01 | 41.92143 | 8.80083 | 23 ft | 78 kts | 205° |
| 2026-04-27 11:01 | 41.91814 | 8.79879 | 20 ft | 44 kts | 205° |
| 2026-04-27 11:01 | 41.91557 | 8.79716 | 18 ft | 34 kts | 204° |
| 2026-04-27 11:01 | 41.91346 | 8.79591 | 20 ft | 30 kts | 204° |
| 2026-04-27 11:02 | 41.91245 | 8.79494 | 19 ft | 17 kts | 241° |
| 2026-04-27 11:02 | 41.91280 | 8.79410 | 21 ft | 11 kts | 330° |
| 2026-04-27 11:02 | 41.91347 | 8.79369 | 20 ft | 10 kts | 334° |
| 2026-04-27 11:02 | 41.91405 | 8.79336 | 20 ft | 8 kts | 345° |
| 2026-04-27 11:03 | 41.91458 | 8.79336 | 20 ft | 7 kts | 13° |
| 2026-04-27 11:03 | 41.91509 | 8.79363 | 20 ft | 11 kts | 23° |
| 2026-04-27 11:03 | 41.91555 | 8.79390 | 20 ft | 11 kts | 25° |
| 2026-04-27 11:03 | 41.91629 | 8.79438 | 20 ft | 16 kts | 26° |
| 2026-04-27 11:04 | 41.91745 | 8.79512 | 20 ft | 20 kts | 25° |
| 2026-04-27 11:04 | 41.91877 | 8.79593 | 23 ft | 18 kts | 23° |
| 2026-04-27 11:04 | 41.91963 | 8.79643 | 21 ft | 7 kts | 23° |
| 2026-04-27 11:04 | 41.91977 | 8.79650 | 21 ft | 0 kts | 16° |
| 2026-04-27 11:05 | 41.91998 | 8.79636 | 21 ft | 3 kts | 319° |
| 2026-04-27 11:05 | 41.92012 | 8.79618 | 21 ft | 3 kts | 316° |
| 2026-04-27 11:05 | 41.92023 | 8.79603 | 21 ft | 0 kts | 314° |